LIMJ METAR and TAF | Updated Today

LIMJ METAR

Genoa Cristoforo Colombo Airport

Observation time: 11 min. ago

LIMJ 052120Z AUTO 04014KT 9999 // OVC036/// 08/01 Q1030

Need help? Read our tutorial on how to read METARs or read the parsed version below.

Genoa Cristoforo Colombo Airport (LIMJ) METAR

  • Weather conditions on Sun, 05 Feb 2023 21:20:00 +0000 (11 min. ago):
  • Present conditions: Dry
  • Clouds: Overcast sky at 1097 meters
  • Visibility: Greater than 10 km
  • Wind: 40 degrees at 14 knots
  • Temperature: 8 celsius
  • Dew point: 1 celsius
  • Pressure: 1030 millibars
  • Remarks: None


Useful to know...

LIMJ TAF

Genoa Cristoforo Colombo Airport

TAF LIMJ 051700Z 0518/0618 02016KT 9999 SCT040 TEMPO 0518/0524 RA
Observation time: 4:31 hr. ago
Need help? Read our tutorial on how to read TAFs or read the parsed version below.

Parsed version of TAF for Genoa Cristoforo Colombo Airport (LIMJ)

  • From 05 February at 18:00 UTC, to day 06 of the month at 18:00 UTC
  • Clouds: Scattered at 1219 meters
  • Visibility: Greater than 10 km
  • Wind: 20 degrees at 16
  • Expected to arise temporarily, from 05 February at 18:00 UTC, to day 05 of the month at 24:00 UTC
  • Other: Rain